Terminal Aerodrome Forecast
Issued by NWS Wakefield, VA

Home | Current Version | Previous Version | Text Only | Print | Product List | Glossary On
Versions: 1 2 3 4 5 6 7 8 9 10 11 12 13 14 15 16 17 18 19 20 21 22 23 24 25 26 27 28 29 30 31 32 33 34 35 36
000
FTUS41 KAKQ 231145 RRB
TAFORF
TAF
KORF 231145Z 2312/2412 08012G18KT P6SM -SHRA OVC004
      TEMPO 2312/2313 3SM SHRA BR OVC002
     FM231300 08015G25KT 4SM -SHRA BR OVC004
     FM231500 12011G18KT 5SM -SHRA BR OVC004
     FM231700 20008KT P6SM OVC007
     FM232000 33004KT P6SM BKN020
     FM240300 32007KT P6SM -SHRA OVC004
     FM240600 32013G20KT P6SM -SHRA OVC004=

USA.gov is the U.S. government's official web portal to all federal, state and local government web resources and services.